Terminal Aerodrome Forecast
Issued by NWS Cleveland, OH

Home | Current Version | Previous Version | Text Only | Print | Product List | Glossary On
Versions: 1 2 3 4 5 6 7 8 9 10 11 12 13 14 15 16 17 18 19 20
857
FTUS41 KCLE 221739
TAFMFD
TAF
KMFD 221739Z 2218/2318 08005KT P6SM BKN100
     FM230500 05008KT 5SM BR VCSH OVC012
     FM230900 04010KT 3SM -RA BR OVC008=

USA.gov is the U.S. government's official web portal to all federal, state and local government web resources and services.